Time;durP1;ratioP1;P1;durP2;ratioP2;P2;SDS_P1;SDS_P2;PMS_P1;PMS_P2;Temp;Humidity;BMP_temperature;BMP_pressure;BME280_temperature;BME280_humidity;BME280_pressure;Samples;Min_cycle;Max_cycle;Signal;HPM_P1;HPM_P2
2022/05/16 00:00:57;;;;;;;3.90;3.30;;;17.70;88.10;;;;;;6037093;23;20451;-79
2022/05/16 00:03:25;;;;;;;3.73;3.43;;;17.60;88.40;;;;;;6046243;23;20533;-79
2022/05/16 00:05:52;;;;;;;2.90;2.70;;;17.60;89.30;;;;;;6054259;23;20483;-79
2022/05/16 00:08:19;;;;;;;4.20;3.40;;;17.60;90.00;;;;;;6056661;23;20531;-79
2022/05/16 00:10:47;;;;;;;3.67;3.37;;;17.50;90.30;;;;;;6035589;23;20456;-79
2022/05/16 00:13:14;;;;;;;4.33;3.93;;;17.50;90.70;;;;;;6036349;23;20471;-79
2022/05/16 00:15:41;;;;;;;5.50;4.00;;;17.50;91.00;;;;;;6040331;23;20531;-79
2022/05/16 00:18:08;;;;;;;3.40;3.10;;;17.50;91.30;;;;;;6034619;23;20515;-79
2022/05/16 00:20:35;;;;;;;4.90;3.90;;;17.50;91.70;;;;;;6049595;23;20458;-79
2022/05/16 00:23:02;;;;;;;3.80;3.50;;;17.40;92.00;;;;;;6058590;23;20471;-79
2022/05/16 00:25:29;;;;;;;4.53;3.67;;;17.40;92.40;;;;;;6059534;23;20502;-78
2022/05/16 00:27:58;;;;;;;4.00;2.93;;;17.30;92.60;;;;;;6051057;23;20870;-79
2022/05/16 00:30:25;;;;;;;4.33;3.60;;;17.30;92.70;;;;;;6050745;23;20444;-79
2022/05/16 00:32:52;;;;;;;5.47;3.03;;;17.20;93.00;;;;;;6061043;23;20463;-79
2022/05/16 00:35:21;;;;;;;5.03;3.30;;;17.20;93.10;;;;;;6045615;23;20943;-79
2022/05/16 00:37:49;;;;;;;4.00;3.27;;;17.10;93.30;;;;;;6038242;23;20825;-79
2022/05/16 00:40:18;;;;;;;5.37;3.20;;;17.20;93.60;;;;;;6040469;23;20432;-79
2022/05/16 00:42:45;;;;;;;3.83;3.43;;;17.10;93.70;;;;;;6033973;23;20476;-79
2022/05/16 00:45:16;;;;;;;3.57;3.27;;;17.20;93.90;;;;;;6043773;23;20525;-79
2022/05/16 00:47:43;;;;;;;3.13;2.93;;;17.20;94.10;;;;;;6052542;23;21133;-79
2022/05/16 00:50:11;;;;;;;3.40;3.10;;;17.20;93.80;;;;;;6051887;23;20444;-79
2022/05/16 00:52:41;;;;;;;2.73;2.53;;;17.20;93.90;;;;;;6043462;23;20497;-79
2022/05/16 00:55:11;;;;;;;3.07;2.30;;;17.20;93.80;;;;;;6052206;23;21077;-79
2022/05/16 00:57:41;;;;;;;3.67;3.20;;;17.10;93.80;;;;;;6034921;23;20448;-79
2022/05/16 01:00:14;;;;;;;3.97;2.80;;;17.10;93.90;;;;;;6045549;23;20529;-79
2022/05/16 01:05:31;;;;;;;2.70;2.47;;;17.00;93.90;;;;;;6048368;23;20503;-79
2022/05/16 01:08:02;;;;;;;3.10;2.90;;;16.90;94.00;;;;;;6060641;23;20829;-79
2022/05/16 01:10:29;;;;;;;4.00;2.60;;;16.90;94.30;;;;;;6061224;23;20471;-79
2022/05/16 01:12:56;;;;;;;2.97;2.67;;;16.90;94.70;;;;;;6048409;23;20460;-79
2022/05/16 01:15:36;;;;;;;3.30;3.00;;;16.80;95.30;;;;;;6044178;23;20482;-79
2022/05/16 01:18:05;;;;;;;3.47;3.13;;;16.80;95.10;;;;;;6037400;23;20530;-79
2022/05/16 01:20:51;;;;;;;2.73;2.50;;;16.70;95.30;;;;;;6047600;23;20443;-79
2022/05/16 01:23:23;;;;;;;2.70;2.50;;;16.70;96.00;;;;;;6034775;23;20546;-79
2022/05/16 01:25:51;;;;;;;2.77;2.57;;;16.60;96.00;;;;;;6047329;23;20460;-79
2022/05/16 01:28:21;;;;;;;3.57;3.00;;;16.60;96.50;;;;;;6045143;23;20463;-79
2022/05/16 01:30:49;;;;;;;2.80;2.60;;;16.50;97.10;;;;;;6060256;23;20794;-79
2022/05/16 01:33:17;;;;;;;2.87;2.67;;;16.40;97.20;;;;;;6061010;23;20505;-79
2022/05/16 01:35:45;;;;;;;2.53;2.33;;;16.40;97.50;;;;;;6048949;23;20502;-79
2022/05/16 01:38:19;;;;;;;4.17;2.93;;;16.30;97.40;;;;;;6062302;23;20435;-79
2022/05/16 01:40:50;;;;;;;3.67;2.60;;;16.30;97.60;;;;;;6035863;23;20462;-79
2022/05/16 01:43:18;;;;;;;3.70;3.40;;;16.30;97.60;;;;;;6062469;23;20570;-79
2022/05/16 01:45:45;;;;;;;3.47;2.83;;;16.40;97.80;;;;;;6040030;23;20559;-79
2022/05/16 01:48:14;;;;;;;3.80;3.03;;;16.40;98.00;;;;;;6061128;23;20525;-80
2022/05/16 01:50:42;;;;;;;3.00;2.80;;;16.30;98.10;;;;;;6042113;23;20483;-79
2022/05/16 01:53:10;;;;;;;2.47;2.27;;;16.30;98.00;;;;;;6034300;23;20539;-79
2022/05/16 01:55:38;;;;;;;3.93;2.43;;;16.30;98.10;;;;;;6054586;23;20457;-79
2022/05/16 01:58:07;;;;;;;3.20;2.50;;;16.30;98.30;;;;;;6056069;23;20523;-79
2022/05/16 02:00:34;;;;;;;3.43;2.43;;;16.30;98.40;;;;;;6035979;23;20959;-79
2022/05/16 02:03:02;;;;;;;2.77;2.57;;;16.30;98.50;;;;;;6044204;23;20808;-79
2022/05/16 02:05:30;;;;;;;3.13;2.93;;;16.30;98.70;;;;;;6059918;23;20455;-79
2022/05/16 02:07:57;;;;;;;3.00;2.80;;;16.30;98.90;;;;;;6041082;23;20444;-79
2022/05/16 02:10:26;;;;;;;2.60;2.40;;;16.30;98.80;;;;;;6037333;23;20527;-79
2022/05/16 02:12:56;;;;;;;3.17;2.87;;;16.30;99.00;;;;;;6051005;23;20952;-78
2022/05/16 02:15:27;;;;;;;4.60;2.40;;;16.20;99.30;;;;;;6055748;23;20428;-79
2022/05/16 02:17:54;;;;;;;2.53;2.33;;;16.20;99.40;;;;;;6060649;23;20443;-79
2022/05/16 02:20:21;;;;;;;4.10;2.50;;;16.10;99.80;;;;;;6053868;23;20444;-79
2022/05/16 02:25:44;;;;;;;3.70;2.90;;;16.00;99.90;;;;;;5999238;23;20553;-80
2022/05/16 02:28:14;;;;;;;3.70;3.30;;;15.90;99.90;;;;;;6052245;23;20439;-79
2022/05/16 02:30:42;;;;;;;3.83;3.20;;;15.80;99.90;;;;;;6050638;23;20867;-79
2022/05/16 02:33:10;;;;;;;4.33;3.50;;;15.80;99.90;;;;;;6035170;23;20502;-78
2022/05/16 02:35:37;;;;;;;4.77;3.10;;;15.70;99.90;;;;;;6039146;23;20474;-79
2022/05/16 02:38:05;;;;;;;5.03;3.80;;;15.60;99.90;;;;;;6053678;23;21145;-79
2022/05/16 02:40:35;;;;;;;3.97;3.60;;;15.70;99.90;;;;;;6042587;23;20443;-79
2022/05/16 02:43:03;;;;;;;5.30;3.63;;;15.60;99.90;;;;;;6039893;23;20483;-79
2022/05/16 02:45:33;;;;;;;4.67;3.80;;;15.70;99.90;;;;;;6050941;23;20456;-79
2022/05/16 02:48:01;;;;;;;5.20;4.03;;;15.70;99.90;;;;;;6055129;23;20451;-79
2022/05/16 02:50:29;;;;;;;4.93;3.57;;;15.70;99.90;;;;;;6033618;23;20455;-80
2022/05/16 02:52:56;;;;;;;4.87;3.50;;;15.70;99.90;;;;;;6049333;23;20473;-80
2022/05/16 02:55:23;;;;;;;4.13;3.73;;;15.70;99.90;;;;;;6051703;23;20451;-80
2022/05/16 02:57:50;;;;;;;4.60;3.50;;;15.80;99.90;;;;;;6046005;23;20490;-79
2022/05/16 03:00:18;;;;;;;4.37;3.37;;;15.90;99.90;;;;;;6046824;23;20443;-79
2022/05/16 03:02:46;;;;;;;5.57;3.57;;;15.90;99.90;;;;;;6036059;23;20478;-79
2022/05/16 03:05:16;;;;;;;3.70;3.40;;;16.00;99.90;;;;;;6061062;23;20473;-79
2022/05/16 03:07:44;;;;;;;3.67;3.33;;;16.00;99.90;;;;;;6054994;23;20526;-79
2022/05/16 03:10:15;;;;;;;3.30;3.10;;;16.00;99.90;;;;;;6035433;23;20440;-79
2022/05/16 03:12:44;;;;;;;3.60;3.30;;;16.00;99.90;;;;;;6042106;23;20474;-79
2022/05/16 03:15:13;;;;;;;3.57;3.27;;;16.00;99.90;;;;;;6045180;23;20540;-79
2022/05/16 03:17:40;;;;;;;4.30;3.20;;;16.00;99.90;;;;;;6091191;23;20870;-82
2022/05/16 03:20:09;;;;;;;4.50;3.30;;;16.00;99.90;;;;;;6119054;23;20515;-82
2022/05/16 03:22:37;;;;;;;5.20;3.67;;;16.00;99.90;;;;;;6106552;23;20858;-82
2022/05/16 03:25:05;;;;;;;3.80;3.50;;;16.00;99.90;;;;;;6089344;23;21005;-81
2022/05/16 03:27:32;;;;;;;3.97;3.40;;;15.90;99.90;;;;;;6089320;23;20478;-82
2022/05/16 03:29:59;;;;;;;3.97;3.43;;;15.90;99.90;;;;;;6089031;23;20443;-82
2022/05/16 03:32:26;;;;;;;4.13;3.70;;;16.00;99.90;;;;;;6090566;23;20466;-82
2022/05/16 03:34:54;;;;;;;3.60;3.10;;;16.00;99.90;;;;;;6083174;23;20939;-81
2022/05/16 03:37:21;;;;;;;6.33;3.67;;;16.10;99.90;;;;;;6090744;23;20473;-82
2022/05/16 03:42:35;;;;;;;6.13;3.77;;;16.20;99.90;;;;;;6088126;23;20465;-83
2022/05/16 03:45:02;;;;;;;4.10;3.70;;;16.30;99.90;;;;;;6086976;23;20957;-79
2022/05/16 03:47:29;;;;;;;3.67;3.33;;;16.30;99.90;;;;;;6087670;23;20488;-80
2022/05/16 03:49:56;;;;;;;3.87;3.43;;;16.40;99.90;;;;;;6087220;23;20513;-80
2022/05/16 03:52:23;;;;;;;3.47;3.20;;;16.50;99.90;;;;;;6090114;23;20486;-74
2022/05/16 03:54:51;;;;;;;3.20;2.90;;;16.50;99.90;;;;;;6089850;23;20446;-74
2022/05/16 03:57:18;;;;;;;3.50;3.20;;;16.70;99.90;;;;;;6090100;23;20962;-77
2022/05/16 03:59:45;;;;;;;5.40;3.83;;;16.70;99.90;;;;;;6089815;23;20442;-75
2022/05/16 04:02:12;;;;;;;4.80;4.40;;;16.70;99.90;;;;;;6088386;23;20462;-75
2022/05/16 04:04:39;;;;;;;3.60;3.23;;;16.70;99.90;;;;;;6088596;23;20504;-75
2022/05/16 04:07:06;;;;;;;3.80;3.40;;;16.60;99.90;;;;;;6087738;23;20835;-76
2022/05/16 04:09:33;;;;;;;4.13;3.73;;;16.60;99.90;;;;;;6087308;23;20500;-76
2022/05/16 04:12:02;;;;;;;3.57;3.27;;;16.60;99.90;;;;;;6081503;23;21194;-75
2022/05/16 04:14:29;;;;;;;3.97;3.60;;;16.50;99.90;;;;;;6089497;23;20476;-74
2022/05/16 04:16:58;;;;;;;4.23;3.17;;;16.50;99.90;;;;;;6074768;23;20449;-75
2022/05/16 04:19:25;;;;;;;4.13;3.73;;;16.40;99.90;;;;;;6085532;23;20533;-74
2022/05/16 04:21:51;;;;;;;2.90;2.60;;;16.40;99.90;;;;;;6086875;23;20577;-75
2022/05/16 04:24:19;;;;;;;3.50;3.10;;;16.50;99.90;;;;;;6079416;23;20529;-74
2022/05/16 04:26:46;;;;;;;7.40;4.13;;;16.40;99.90;;;;;;6080401;23;20968;-75
2022/05/16 04:29:14;;;;;;;4.63;3.50;;;16.50;99.90;;;;;;6087247;23;20934;-76
2022/05/16 04:31:41;;;;;;;4.07;3.37;;;16.40;99.90;;;;;;6085187;23;20521;-74
2022/05/16 04:34:09;;;;;;;4.97;3.70;;;16.40;99.90;;;;;;6094124;23;20462;-74
2022/05/16 04:36:36;;;;;;;6.20;4.30;;;16.40;99.90;;;;;;6088489;23;20438;-75
2022/05/16 04:39:04;;;;;;;3.80;3.37;;;16.30;99.90;;;;;;6087365;23;20858;-75
2022/05/16 04:44:17;;;;;;;4.27;3.87;;;16.10;99.90;;;;;;6076261;23;20434;-80
2022/05/16 04:46:44;;;;;;;7.13;3.80;;;16.00;99.90;;;;;;6078930;23;20493;-80
2022/05/16 04:49:11;;;;;;;4.57;4.17;;;16.00;99.90;;;;;;6078200;23;20440;-80
2022/05/16 04:51:39;;;;;;;5.90;3.77;;;15.90;99.90;;;;;;6082530;23;20449;-80
2022/05/16 04:54:07;;;;;;;5.23;3.60;;;15.90;99.90;;;;;;6082772;23;20522;-80
2022/05/16 04:56:34;;;;;;;4.17;3.77;;;16.00;99.90;;;;;;6085972;23;20609;-80
2022/05/16 04:59:01;;;;;;;4.03;3.33;;;16.10;99.90;;;;;;6082075;23;20438;-80
2022/05/16 05:01:30;;;;;;;5.90;3.77;;;16.20;99.90;;;;;;6080235;23;20522;-80
2022/05/16 05:03:57;;;;;;;4.03;3.73;;;16.20;99.90;;;;;;6088457;23;20438;-80
2022/05/16 05:06:24;;;;;;;4.47;3.60;;;16.30;99.90;;;;;;6084954;23;20446;-80
2022/05/16 05:08:51;;;;;;;4.43;3.90;;;16.30;99.90;;;;;;6083435;23;20464;-79
2022/05/16 05:16:48;;;;;;;4.47;4.17;;;16.50;99.90;;;;;;6071955;23;20451;-82
2022/05/16 05:19:15;;;;;;;4.57;4.17;;;16.50;99.90;;;;;;6079466;23;20439;-81
2022/05/16 05:21:42;;;;;;;4.40;4.00;;;16.60;99.90;;;;;;6090339;23;20512;-82
2022/05/16 05:24:09;;;;;;;4.20;3.80;;;16.70;99.90;;;;;;6084531;23;20438;-81
2022/05/16 05:26:39;;;;;;;4.23;3.83;;;16.70;99.90;;;;;;6075180;23;20480;-81
2022/05/16 05:29:06;;;;;;;5.03;4.47;;;16.80;99.90;;;;;;6078475;23;20427;-81
2022/05/16 05:31:33;;;;;;;4.30;3.83;;;16.90;99.90;;;;;;6086340;23;20547;-81
2022/05/16 05:34:02;;;;;;;5.57;4.00;;;17.00;99.90;;;;;;6086462;23;20470;-81
2022/05/16 05:36:29;;;;;;;4.77;3.83;;;17.10;99.90;;;;;;6088473;23;20442;-81
2022/05/16 05:38:57;;;;;;;3.87;3.57;;;17.10;99.90;;;;;;6083353;23;20526;-81
2022/05/16 05:41:25;;;;;;;4.00;3.57;;;17.20;99.90;;;;;;6084580;23;20458;-83
2022/05/16 05:43:52;;;;;;;3.97;3.40;;;17.20;99.90;;;;;;6090915;23;20917;-81
2022/05/16 05:46:19;;;;;;;4.50;4.10;;;17.20;99.90;;;;;;6090727;23;20953;-81
2022/05/16 05:48:47;;;;;;;4.00;3.37;;;17.20;99.90;;;;;;6085590;23;20434;-81
2022/05/16 05:51:16;;;;;;;5.30;3.63;;;17.20;99.90;;;;;;6088435;23;20439;-83
2022/05/16 05:53:44;;;;;;;4.57;4.00;;;17.20;99.90;;;;;;6067754;23;20447;-82
2022/05/16 05:56:13;;;;;;;3.90;3.53;;;17.30;99.90;;;;;;6089677;23;20474;-81
2022/05/16 05:58:40;;;;;;;4.47;4.03;;;17.30;99.90;;;;;;6095366;23;20448;-82
2022/05/16 06:01:07;;;;;;;6.67;4.27;;;17.30;99.90;;;;;;6087424;23;20969;-81
2022/05/16 06:03:34;;;;;;;4.30;4.00;;;17.30;99.90;;;;;;6083950;23;21092;-82
2022/05/16 06:06:01;;;;;;;3.60;3.30;;;17.40;99.90;;;;;;6079949;23;20458;-82
2022/05/16 06:08:29;;;;;;;5.93;3.57;;;17.40;99.90;;;;;;6083621;23;20999;-82
2022/05/16 06:10:57;;;;;;;4.63;4.03;;;17.50;99.90;;;;;;6078903;23;20439;-83
2022/05/16 06:13:24;;;;;;;4.20;3.77;;;17.50;99.90;;;;;;6085540;23;20462;-82
2022/05/16 06:15:50;;;;;;;8.90;4.93;;;17.60;99.90;;;;;;6085389;23;20434;-83
2022/05/16 06:18:17;;;;;;;4.80;4.37;;;17.70;99.90;;;;;;6084842;23;20450;-82
2022/05/16 06:20:44;;;;;;;4.23;3.83;;;17.80;99.90;;;;;;6082906;23;20439;-82
2022/05/16 06:23:11;;;;;;;4.60;4.17;;;17.80;99.90;;;;;;6078516;23;20529;-82
2022/05/16 06:25:42;;;;;;;7.53;5.10;;;17.80;99.90;;;;;;6087791;23;21036;-82
2022/05/16 06:28:11;;;;;;;6.63;3.97;;;17.90;99.90;;;;;;6091275;23;20473;-83
2022/05/16 06:30:41;;;;;;;5.00;4.50;;;18.00;99.90;;;;;;6084029;23;20995;-82
2022/05/16 06:33:08;;;;;;;5.23;4.17;;;18.10;99.90;;;;;;6089264;23;20469;-82
2022/05/16 06:35:36;;;;;;;4.93;4.40;;;18.20;99.90;;;;;;6086778;23;20492;-82
2022/05/16 06:38:08;;;;;;;6.73;4.33;;;18.40;99.90;;;;;;6087217;23;20438;-82
2022/05/16 06:40:36;;;;;;;4.40;4.00;;;18.40;99.90;;;;;;6076859;23;20449;-82
2022/05/16 06:43:05;;;;;;;4.53;4.13;;;18.60;99.90;;;;;;6085474;23;20975;-83
2022/05/16 06:45:32;;;;;;;6.43;5.30;;;18.80;99.90;;;;;;6083108;23;20435;-83
2022/05/16 06:47:59;;;;;;;9.40;5.47;;;19.00;99.90;;;;;;6084428;23;20565;-82
2022/05/16 06:50:26;;;;;;;5.60;4.97;;;19.20;99.90;;;;;;6082194;23;20444;-83
2022/05/16 06:52:53;;;;;;;6.10;4.90;;;19.50;99.90;;;;;;6084799;23;20538;-82
2022/05/16 06:55:21;;;;;;;4.90;4.43;;;19.70;99.90;;;;;;6086317;23;20475;-82
2022/05/16 06:57:48;;;;;;;6.03;3.87;;;19.90;99.90;;;;;;6085837;23;20450;-83
2022/05/16 07:00:17;;;;;;;5.60;4.90;;;20.10;99.90;;;;;;6086644;23;20450;-82
2022/05/16 07:02:44;;;;;;;6.23;4.27;;;20.30;99.90;;;;;;6087113;23;20829;-83
2022/05/16 07:05:11;;;;;;;7.00;3.80;;;20.50;99.90;;;;;;6087422;23;20484;-82
2022/05/16 07:07:38;;;;;;;6.60;4.07;;;20.70;99.90;;;;;;6089216;23;20471;-82
2022/05/16 07:10:06;;;;;;;4.47;4.07;;;20.90;99.90;;;;;;6088553;23;20474;-82
2022/05/16 07:12:33;;;;;;;7.20;4.00;;;21.00;99.90;;;;;;6088705;23;21048;-82
2022/05/16 07:15:00;;;;;;;5.83;4.17;;;21.20;99.90;;;;;;6087670;23;20560;-81
2022/05/16 07:17:29;;;;;;;3.60;3.30;;;21.50;99.90;;;;;;6085858;23;20546;-81
2022/05/16 07:19:56;;;;;;;5.33;3.47;;;21.90;99.90;;;;;;6088735;23;21081;-82
2022/05/16 07:22:23;;;;;;;4.70;3.90;;;22.20;99.90;;;;;;6087680;23;20466;-82
2022/05/16 07:24:52;;;;;;;4.10;3.70;;;22.30;99.90;;;;;;6087760;23;20459;-82
2022/05/16 07:30:05;;;;;;;4.50;4.10;;;22.40;99.90;;;;;;6086557;23;20461;-84
2022/05/16 07:32:41;;;;;;;5.50;3.80;;;22.40;99.90;;;;;;6085997;23;20462;-82
2022/05/16 07:35:11;;;;;;;3.97;3.57;;;22.50;99.90;;;;;;6087608;23;20457;-82
2022/05/16 07:37:38;;;;;;;4.30;3.90;;;22.50;99.90;;;;;;6085626;23;20446;-82
2022/05/16 07:40:07;;;;;;;3.97;3.40;;;22.70;99.90;;;;;;6085659;23;20446;-82
2022/05/16 07:42:35;;;;;;;3.90;3.50;;;22.80;99.90;;;;;;6086995;23;20486;-82
2022/05/16 07:45:03;;;;;;;3.77;3.40;;;23.40;99.90;;;;;;6086709;23;20445;-82
2022/05/16 07:47:31;;;;;;;3.53;2.90;;;23.90;99.90;;;;;;6086021;23;20561;-81
2022/05/16 07:50:01;;;;;;;5.87;3.63;;;24.20;99.90;;;;;;6092449;23;20450;-82
2022/05/16 07:52:30;;;;;;;4.80;3.30;;;24.50;99.90;;;;;;6092499;23;20459;-82
2022/05/16 07:54:58;;;;;;;4.30;3.90;;;24.50;99.90;;;;;;6087637;23;20946;-82
2022/05/16 07:57:25;;;;;;;4.23;3.30;;;24.30;99.90;;;;;;6086981;23;20454;-82
2022/05/16 07:59:52;;;;;;;3.67;3.17;;;24.20;99.90;;;;;;6088868;23;20537;-82
2022/05/16 08:02:19;;;;;;;3.80;3.37;;;24.20;99.90;;;;;;6095469;23;20847;-82
2022/05/16 08:04:46;;;;;;;4.80;3.63;;;24.00;99.90;;;;;;6098048;23;20446;-82
2022/05/16 08:07:16;;;;;;;3.60;3.30;;;23.80;99.90;;;;;;6088270;23;20652;-83
2022/05/16 08:12:30;;;;;;;7.50;4.10;;;23.30;99.90;;;;;;6087937;23;20545;-80
2022/05/16 08:15:00;;;;;;;5.20;3.93;;;23.00;99.90;;;;;;6089518;23;20527;-81
2022/05/16 08:17:27;;;;;;;4.63;4.20;;;22.90;99.90;;;;;;6086180;23;20949;-81
2022/05/16 08:19:56;;;;;;;5.87;4.37;;;22.90;99.90;;;;;;6088661;23;20442;-83
2022/05/16 08:22:29;;;;;;;4.20;3.80;;;22.80;99.90;;;;;;6092920;23;20982;-82
2022/05/16 08:24:57;;;;;;;4.43;4.03;;;22.90;99.90;;;;;;6087408;23;20439;-87
2022/05/16 08:27:24;;;;;;;4.57;4.10;;;23.10;99.90;;;;;;6086694;23;20501;-84
2022/05/16 08:29:51;;;;;;;9.77;4.77;;;23.10;99.90;;;;;;6091172;23;20546;-84
2022/05/16 08:32:23;;;;;;;6.27;3.90;;;23.20;99.90;;;;;;6089610;23;20461;-82
2022/05/16 08:34:50;;;;;;;9.70;5.20;;;23.40;99.90;;;;;;6086569;23;20446;-81
2022/05/16 08:40:05;;;;;;;5.57;4.13;;;23.60;99.90;;;;;;6086365;23;20454;-81
2022/05/16 08:42:47;;;;;;;4.77;4.20;;;23.30;99.90;;;;;;6088097;23;20454;-81
2022/05/16 08:45:18;;;;;;;6.70;5.17;;;23.10;99.90;;;;;;6090193;23;20931;-81
2022/05/16 08:47:55;;;;;;;5.60;4.60;;;23.10;99.90;;;;;;6089661;23;20465;-81
2022/05/16 08:50:29;;;;;;;6.03;4.87;;;23.20;99.90;;;;;;6094518;23;20472;-81
2022/05/16 08:53:02;;;;;;;5.87;4.03;;;23.60;99.90;;;;;;6087868;23;20476;-81
2022/05/16 08:55:35;;;;;;;6.50;4.93;;;24.60;99.90;;;;;;6087730;23;20959;-82
2022/05/16 08:58:09;;;;;;;5.03;4.43;;;25.50;99.90;;;;;;6094843;23;20485;-81
2022/05/16 09:00:41;;;;;;;6.73;5.07;;;26.20;99.90;;;;;;6085869;23;20449;-81
2022/05/16 09:03:14;;;;;;;4.90;4.37;;;26.30;99.00;;;;;;6091196;23;20439;-81
2022/05/16 09:05:48;;;;;;;5.20;4.70;;;26.10;99.00;;;;;;6080570;23;20442;-81
2022/05/16 09:08:23;;;;;;;6.70;4.50;;;25.80;98.70;;;;;;6081269;23;20478;-81
2022/05/16 09:11:02;;;;;;;6.13;4.70;;;25.70;99.40;;;;;;6081075;23;22246;-80
2022/05/16 09:13:41;;;;;;;5.27;4.77;;;25.80;99.40;;;;;;6084956;23;20441;-81
2022/05/16 09:16:16;;;;;;;4.93;4.33;;;25.80;99.50;;;;;;6091185;23;20488;-77
2022/05/16 09:18:51;;;;;;;4.67;4.27;;;26.00;99.60;;;;;;6082980;23;20552;-77
2022/05/16 09:21:26;;;;;;;5.20;4.70;;;26.50;99.00;;;;;;6085345;23;20458;-84
2022/05/16 09:24:04;;;;;;;4.40;4.00;;;27.50;97.40;;;;;;6083866;23;20437;-83
2022/05/16 09:26:47;;;;;;;7.27;4.53;;;28.30;96.20;;;;;;6080963;23;20460;-83
2022/05/16 09:29:22;;;;;;;4.77;4.20;;;28.50;95.40;;;;;;6091160;23;20546;-83
2022/05/16 09:31:52;;;;;;;7.20;4.40;;;28.40;95.10;;;;;;6087874;23;20485;-84
2022/05/16 09:34:20;;;;;;;7.53;4.90;;;28.40;94.80;;;;;;6086229;23;20442;-83
2022/05/16 09:36:49;;;;;;;8.20;4.80;;;28.10;94.60;;;;;;6088519;23;20979;-83
2022/05/16 09:39:20;;;;;;;4.67;4.27;;;28.00;94.60;;;;;;6084327;23;20495;-80
2022/05/16 09:41:56;;;;;;;6.70;4.30;;;28.20;94.40;;;;;;6090231;23;20474;-83
2022/05/16 09:44:27;;;;;;;5.10;4.70;;;28.10;93.90;;;;;;6092817;23;20936;-80
2022/05/16 09:47:21;;;;;;;4.97;4.20;;;28.20;92.40;;;;;;6088456;23;20453;-81
2022/05/16 09:50:10;;;;;;;6.20;4.87;;;27.80;93.10;;;;;;6073759;23;20551;-80
2022/05/16 09:52:42;;;;;;;4.83;3.90;;;27.50;93.50;;;;;;6081632;23;20582;-85
2022/05/16 09:55:14;;;;;;;6.03;3.90;;;27.40;93.70;;;;;;6088133;23;20524;-82
2022/05/16 09:57:48;;;;;;;6.53;4.70;;;27.70;93.70;;;;;;6094345;23;20446;-82
2022/05/16 10:00:21;;;;;;;7.03;4.50;;;28.10;93.90;;;;;;6089960;23;20444;-84
2022/05/16 10:02:56;;;;;;;6.00;4.27;;;28.40;93.20;;;;;;6090805;23;20492;-85
2022/05/16 10:05:29;;;;;;;6.40;4.07;;;28.90;92.50;;;;;;6088106;23;20453;-85
2022/05/16 10:08:02;;;;;;;5.07;4.67;;;29.40;92.00;;;;;;6089683;23;20454;-91
2022/05/16 10:10:36;;;;;;;5.23;4.20;;;29.70;90.60;;;;;;6085077;23;20442;-91
2022/05/16 10:13:07;;;;;;;4.00;3.70;;;30.00;90.50;;;;;;6080350;23;20953;-90
2022/05/16 10:15:35;;;;;;;7.37;4.80;;;30.50;88.10;;;;;;6091375;23;20842;-91
2022/05/16 10:18:08;;;;;;;4.83;4.43;;;30.50;86.90;;;;;;6088274;23;20450;-92
2022/05/16 10:20:40;;;;;;;5.47;4.47;;;30.40;87.50;;;;;;6087968;23;20439;-90
2022/05/16 10:23:12;;;;;;;7.53;4.60;;;30.90;86.40;;;;;;6089219;23;20504;-91
2022/05/16 10:25:43;;;;;;;5.37;4.17;;;31.10;84.00;;;;;;6087368;23;21011;-90
2022/05/16 10:28:15;;;;;;;4.30;3.90;;;30.90;83.20;;;;;;6084987;23;21000;-79
2022/05/16 10:33:32;;;;;;;8.07;4.03;;;30.10;80.90;;;;;;6071161;23;20522;-77
2022/05/16 10:36:05;;;;;;;5.70;3.70;;;29.40;81.80;;;;;;6076865;23;20469;-78
2022/05/16 10:38:39;;;;;;;4.00;3.27;;;29.60;82.20;;;;;;6071710;23;20427;-78
2022/05/16 10:41:11;;;;;;;4.70;3.70;;;29.20;81.20;;;;;;6087730;23;20808;-78
2022/05/16 10:43:50;;;;;;;3.33;3.00;;;28.90;81.90;;;;;;6085241;23;20438;-79
2022/05/16 10:46:20;;;;;;;4.60;3.13;;;28.40;82.40;;;;;;6084794;23;20499;-79
2022/05/16 10:48:51;;;;;;;4.60;3.33;;;27.70;85.00;;;;;;6081263;23;20931;-80
2022/05/16 10:51:24;;;;;;;2.90;2.60;;;27.70;86.50;;;;;;6081579;23;20468;-79
2022/05/16 10:54:06;;;;;;;4.63;3.03;;;27.60;85.90;;;;;;6079038;23;20471;-79
2022/05/16 10:57:02;;;;;;;4.83;2.87;;;27.50;85.90;;;;;;6080478;23;20438;-79
2022/05/16 11:00:06;;;;;;;3.60;3.30;;;27.20;86.10;;;;;;6077225;23;20782;-79
2022/05/16 11:03:09;;;;;;;3.10;2.90;;;27.10;87.70;;;;;;6020471;23;21026;-79
2022/05/16 11:05:42;;;;;;;6.20;3.07;;;27.80;87.20;;;;;;6057120;23;20434;-79
2022/05/16 11:08:19;;;;;;;5.03;2.73;;;28.10;85.40;;;;;;6087152;23;20474;-79
2022/05/16 11:10:53;;;;;;;4.20;2.37;;;28.20;84.70;;;;;;6071446;23;20573;-78
2022/05/16 11:13:28;;;;;;;3.00;2.20;;;28.10;84.30;;;;;;6077388;23;20470;-79
2022/05/16 11:16:00;;;;;;;5.20;2.57;;;27.90;85.00;;;;;;6069862;23;20929;-79
2022/05/16 11:18:36;;;;;;;8.20;3.30;;;28.00;86.00;;;;;;6079062;23;20537;-79
2022/05/16 11:21:14;;;;;;;4.77;2.70;;;27.90;86.70;;;;;;6084234;23;21036;-80
2022/05/16 11:23:49;;;;;;;4.47;2.90;;;27.50;87.80;;;;;;6083236;23;20933;-79
2022/05/16 11:26:23;;;;;;;5.37;2.80;;;27.00;89.70;;;;;;6087354;23;20457;-79
2022/05/16 11:31:56;;;;;;;3.20;2.80;;;26.00;90.50;;;;;;6071722;23;21464;-79
2022/05/16 11:34:28;;;;;;;7.00;2.90;;;25.50;90.60;;;;;;6076973;23;20443;-79
2022/05/16 11:37:00;;;;;;;6.23;2.80;;;25.40;91.30;;;;;;6083533;23;20438;-79
2022/05/16 11:39:33;;;;;;;4.30;2.67;;;25.50;91.50;;;;;;6081111;23;20435;-79
2022/05/16 11:42:08;;;;;;;3.97;2.57;;;24.70;92.10;;;;;;6087939;23;20979;-79
2022/05/16 11:44:49;;;;;;;3.50;2.50;;;24.00;93.00;;;;;;6083883;23;20441;-78
2022/05/16 11:47:23;;;;;;;4.30;2.80;;;23.80;93.80;;;;;;6082967;23;20445;-79
2022/05/16 11:50:01;;;;;;;4.87;2.50;;;23.60;94.40;;;;;;6082359;23;20850;-79
2022/05/16 11:52:44;;;;;;;4.90;2.40;;;23.60;94.20;;;;;;6086659;23;20505;-79
2022/05/16 12:00:54;;;;;;;3.53;2.17;;;23.70;94.30;;;;;;6086347;23;20494;-79
2022/05/16 12:03:23;;;;;;;3.70;1.70;;;23.50;93.80;;;;;;6088385;23;20435;-79
2022/05/16 12:05:53;;;;;;;2.90;1.93;;;23.20;93.90;;;;;;6088215;23;21069;-79
2022/05/16 12:08:40;;;;;;;4.47;2.00;;;22.90;94.50;;;;;;6088904;23;20500;-79
2022/05/16 12:11:14;;;;;;;3.07;1.90;;;22.80;94.90;;;;;;6087207;23;20470;-79
2022/05/16 12:14:09;;;;;;;3.63;1.60;;;22.60;95.90;;;;;;6083533;23;20488;-79
2022/05/16 12:16:51;;;;;;;3.70;2.10;;;22.40;96.00;;;;;;6083512;23;20446;-79
2022/05/16 12:19:32;;;;;;;3.27;1.90;;;22.30;94.90;;;;;;6080015;23;20441;-79
2022/05/16 12:22:02;;;;;;;3.67;1.50;;;22.20;95.50;;;;;;6087045;23;20465;-78
2022/05/16 12:24:50;;;;;;;2.80;1.43;;;22.20;95.30;;;;;;6081024;23;20449;-79
2022/05/16 12:27:27;;;;;;;2.30;1.57;;;22.20;95.20;;;;;;6085936;23;20438;-79
2022/05/16 12:29:56;;;;;;;2.87;1.60;;;22.20;95.20;;;;;;6087189;23;20568;-79
2022/05/16 12:32:46;;;;;;;2.47;1.70;;;22.20;95.50;;;;;;6085821;23;21016;-79
2022/05/16 12:35:16;;;;;;;3.10;1.60;;;22.20;95.40;;;;;;6072487;23;20936;-76
2022/05/16 12:37:43;;;;;;;2.33;1.47;;;22.10;95.90;;;;;;6058215;23;20846;-78
2022/05/16 12:40:18;;;;;;;6.10;2.00;;;22.10;96.90;;;;;;6081052;23;20860;-79
2022/05/16 12:43:00;;;;;;;3.80;1.93;;;21.70;99.90;;;;;;6079492;23;20437;-78
2022/05/16 12:45:57;;;;;;;3.53;2.10;;;21.10;99.90;;;;;;6084178;23;20456;-79
2022/05/16 12:48:47;;;;;;;2.43;2.20;;;20.60;99.90;;;;;;6091822;23;20515;-79
2022/05/16 12:51:40;;;;;;;2.80;2.23;;;20.10;99.90;;;;;;6057401;23;20571;-79
2022/05/16 12:54:35;;;;;;;5.10;2.20;;;19.80;99.90;;;;;;6064155;23;20442;-78
2022/05/16 12:57:21;;;;;;;4.30;2.20;;;19.60;99.90;;;;;;6023974;23;20438;-77
2022/05/16 12:59:57;;;;;;;3.13;2.07;;;19.40;99.90;;;;;;6084016;23;20504;-80
2022/05/16 13:02:31;;;;;;;3.60;2.53;;;19.40;99.90;;;;;;6077843;23;20940;-80
2022/05/16 13:05:15;;;;;;;4.37;2.50;;;19.50;99.90;;;;;;6081962;23;20444;-80
2022/05/16 13:07:57;;;;;;;4.17;2.10;;;19.60;99.90;;;;;;6080568;23;20834;-79
2022/05/16 13:10:31;;;;;;;3.97;2.30;;;19.70;99.90;;;;;;6083953;23;20478;-79
2022/05/16 13:13:09;;;;;;;4.63;2.93;;;19.80;99.90;;;;;;6081217;23;20931;-79
2022/05/16 13:15:44;;;;;;;2.83;2.27;;;20.00;99.90;;;;;;6075516;23;20472;-80
2022/05/16 13:18:16;;;;;;;2.40;2.10;;;20.30;99.90;;;;;;6081012;23;20459;-80
2022/05/16 13:20:45;;;;;;;3.80;2.70;;;20.50;99.90;;;;;;6079208;23;20460;-80
2022/05/16 13:23:14;;;;;;;3.33;2.40;;;20.80;99.90;;;;;;6085032;23;20443;-80
2022/05/16 13:31:11;;;;;;;4.00;2.30;;;21.30;99.90;;;;;;6073814;23;20453;-80
2022/05/16 13:33:41;;;;;;;3.03;2.50;;;21.60;99.90;;;;;;6095558;23;20505;-77
2022/05/16 13:36:19;;;;;;;4.00;2.20;;;21.70;99.90;;;;;;6084373;23;20452;-79
2022/05/16 13:38:53;;;;;;;8.37;2.60;;;21.90;99.90;;;;;;6085509;23;20486;-80
2022/05/16 13:41:23;;;;;;;3.13;2.20;;;22.10;99.90;;;;;;6088066;23;20507;-80
2022/05/16 13:43:51;;;;;;;2.80;2.37;;;22.50;99.90;;;;;;6083512;23;20430;-80
2022/05/16 13:46:19;;;;;;;4.60;2.57;;;22.90;99.90;;;;;;6085915;23;20480;-80
2022/05/16 13:48:56;;;;;;;4.13;2.60;;;23.50;99.90;;;;;;6083831;23;20519;-80